Adams, Oklahoma
Current Conditions -  °F | °C
As of 10:55 PM on Thursday 30 Oct 2014 (Local Time) from KLBL Reporting Station
Clear Clear  
Wind Chill: 41°   Ceiling: Unl
Heat Index: 45°   Visibility: 10mi
Dew Point: 27°   Wind: 7mph
Humidity: 49%   Direction: 10°N
Pressure: 30.36"   Gusts: NA
Location:  36.76°N, 101.08°W
Report Text: KLBL 310355Z AUTO 01006KT 10SM CLR 07/M03 A3036 RMK AO1
Loading
Personal Weather Stations






























Interactive Weather Map
Tropical Storm Tracking
New forecast layout! Learn more

10-Day Weather Forecast

Advertisements
Track Severe Weather on mobile